Main page
METAR-TAF:

METAR-TAF

Airports :

Farnborough, England

Farnborough Airport

latitude: 51-17N, longitude: 000-46W, elevation: 65 m

Current weather observation

The report was made 40 minutes ago, at 13:20 UTC
Wind 13 kt from the Southwest
Temperature 20°C
Humidity 78%
Pressure 1014 hPa
Visibility 10 km or more
Few clouds at a height of 2100 ft
Scattered clouds at a height of 2400 ft

METAR: EGLF 241320Z 23013KT 9999 FEW021 SCT024 20/16 Q1014

Time: 15:00 (14:00 UTC)

Forecast

The report was made 3 hours and 1 minutes ago, at 10:59 UTC
Forecast valid from 24 at 12 UTC to 24 at 19 UTC
Wind 12 kt from the West/Southwest
Visibility 10 km or more
Scattered clouds at a height of 2000 ft
Probability 30% :
Temporary
from 24 at 12 UTC to 24 at 19 UTC
Wind 15 kt from the West/Southwest with gusts up to 25 kt
Visibility: 8000 m
light rain showers

TAF: EGLF 241059Z 2412/2419 24012KT 9999 SCT020 PROB30 TEMPO 2412/2419 24015G25KT 8000 -SHRA

Weather observations and forecasts of more than 4000 airports (METAR and TAF reports).

The available stations are represented by yellow and red dots on the map.

Hover mouse over dot to see the name of the station.

Then click to see weather observations and forecasts.

To change the map : click on the green buttons with a black cross to zoom in, on the green button with a dash to zoom out, or on the green arrows for adjacent maps.


METAR-TAF: